^^
Datos históricos de la estación: Murcia-Puente Tocinos
Diario Informe para Mayo 8, 2021 Unidades:  Métrico    Ingés   Ambas
Diario Semanal Mensual Anual
  Máxima: Mínima: Promedio:
Temperatura: 7.5 °C 4.2 °C 5.5 °C
Punto de rocio: 6.9 °C 3.5 °C 4.9 °C
Humedad: 98% 93.7% 96%
Velocidad viento: 14.8km/h 2.9km/h 8km/h
Racha viento: 28.2km/h - -
Viento- - Sur
Presión: 1010.3 hPa 1003.4 hPa -
Precipitación: 30.0 mm    
 
 
Tabla de datos para Mayo 8, 2021
Hora Temperatura Punto de rocio Presión Viento Velocidad viento Racha viento Humedad Intensidad lluvia(por hora) Nubes
00:04 5.5 °C 4.6 °C 1009.7 hPa Sur 9.5 km/h 16.7 km/h 93.7% 0.2 mm
00:09 5.4 °C 4.5 °C 1009.8 hPa SSO 9.8 km/h 16.7 km/h 94% 0.2 mm
00:14 5.4 °C 4.5 °C 1009.8 hPa Sur 10 km/h 16.7 km/h 94% 0.2 mm
00:19 5.4 °C 4.5 °C 1009.8 hPa Sur 10 km/h 14.8 km/h 94% 0.2 mm
00:24 5.4 °C 4.5 °C 1009.8 hPa Sur 10 km/h 14.8 km/h 94% 0.5 mm
00:29 5.4 °C 4.5 °C 1009.8 hPa Sur 9.7 km/h 14.8 km/h 94% 0.7 mm
00:34 5.4 °C 4.5 °C 1009.8 hPa SSO 9.5 km/h 17.2 km/h 94.1% 1.0 mm
00:39 5.4 °C 4.7 °C 1009.8 hPa SSO 9.8 km/h 16.7 km/h 95% 1.3 mm
00:44 5.4 °C 4.7 °C 1009.7 hPa Sur 10 km/h 16.1 km/h 95% 1.5 mm
00:49 5.4 °C 4.7 °C 1009.7 hPa Sur 9.7 km/h 14.5 km/h 95% 1.8 mm
00:54 5.4 °C 4.7 °C 1009.7 hPa Sur 9.5 km/h 11.3 km/h 95% 2.0 mm
00:59 5.4 °C 4.7 °C 1009.6 hPa Sur 7.9 km/h 13.7 km/h 95% 2.5 mm
01:04 5.4 °C 4.7 °C 1009.6 hPa Sur 6.9 km/h 14.5 km/h 95% 2.5 mm
01:09 5.4 °C 4.7 °C 1009.7 hPa Sur 7.3 km/h 11.9 km/h 95% 2.6 mm
01:14 5.4 °C 4.7 °C 1009.7 hPa Sur 7.6 km/h 13.7 km/h 95% 2.8 mm
01:19 5.4 °C 4.7 °C 1009.7 hPa Sur 7.6 km/h 13 km/h 95% 3.1 mm
01:24 5.4 °C 4.7 °C 1009.8 hPa Sur 7.6 km/h 13.7 km/h 95% 3.3 mm
01:29 5.3 °C 4.6 °C 1009.8 hPa Sur 8.3 km/h 16.7 km/h 95% 3.4 mm
01:34 5.3 °C 4.6 °C 1009.8 hPa Sur 8.7 km/h 16.1 km/h 95% 3.4 mm
01:39 5.3 °C 4.6 °C 1009.9 hPa Sur 9.2 km/h 14.8 km/h 95% 3.4 mm
01:44 5.3 °C 4.6 °C 1009.9 hPa SSO 9.5 km/h 16.7 km/h 95% 3.6 mm
01:49 5.3 °C 4.6 °C 1009.9 hPa Sur 10 km/h 19 km/h 95% 3.4 mm
01:54 5.2 °C 4.5 °C 1010.0 hPa SSO 10.3 km/h 19.3 km/h 95.1% 3.3 mm
01:59 5.2 °C 4.6 °C 1010.0 hPa SSO 10.8 km/h 19.3 km/h 96% 3.1 mm
02:04 5.2 °C 4.6 °C 1010.0 hPa SSO 11.1 km/h 16.1 km/h 96% 3.1 mm
02:09 5.2 °C 4.6 °C 1010.0 hPa SO 8.5 km/h 14.5 km/h 96% 3.4 mm
02:14 5.2 °C 4.6 °C 1009.8 hPa SSO 6.9 km/h 11.9 km/h 96% 3.3 mm
02:19 5.2 °C 4.6 °C 1009.8 hPa SSO 6.2 km/h 11.3 km/h 95.9% 3.4 mm
02:24 5.2 °C 4.5 °C 1009.8 hPa SSO 5.8 km/h 10 km/h 95.2% 2.8 mm
02:29 5.2 °C 4.6 °C 1009.6 hPa Sur 6.2 km/h 10 km/h 96% 2.8 mm
02:34 5.2 °C 4.5 °C 1009.6 hPa Sur 6.5 km/h 11.1 km/h 95.4% 2.5 mm
02:39 5.1 °C 4.4 °C 1009.8 hPa Sur 6.8 km/h 11.3 km/h 95.3% 2.2 mm
02:44 5.1 °C 4.5 °C 1009.8 hPa SO 6.9 km/h 11.3 km/h 95.8% 2.0 mm
02:49 5.2 °C 4.5 °C 1009.8 hPa SO 6.9 km/h 13 km/h 96% 2.0 mm
02:54 5.2 °C 4.5 °C 1009.8 hPa OSO 6.9 km/h 16.7 km/h 95.5% 1.8 mm
02:59 5.1 °C 4.4 °C 1009.8 hPa SO 7.9 km/h 19 km/h 95% 1.8 mm
03:04 5.1 °C 4.4 °C 1009.8 hPa SO 8.4 km/h 19.3 km/h 95% 1.5 mm
03:09 5 °C 4.3 °C 1009.9 hPa SO 9.6 km/h 16.1 km/h 95% 1.2 mm
03:14 5 °C 4.3 °C 1009.9 hPa SO 10.3 km/h 16.7 km/h 95% 1.3 mm
03:19 5 °C 4.3 °C 1009.9 hPa SO 9.8 km/h 16.1 km/h 95% 1.3 mm
03:24 5 °C 4.3 °C 1009.9 hPa SO 9.5 km/h 17.2 km/h 95% 1.0 mm
03:29 5 °C 4.3 °C 1009.9 hPa SO 8.8 km/h 15.6 km/h 95% 1.3 mm
03:34 5 °C 4.1 °C 1009.9 hPa SSO 8.4 km/h 16.1 km/h 94% 1.3 mm
03:39 5 °C 4.1 °C 1010.1 hPa SO 8.6 km/h 16.7 km/h 94% 1.3 mm
03:44 5 °C 4.1 °C 1010.1 hPa SO 8.7 km/h 16.1 km/h 94% 1.6 mm
03:49 5 °C 4.1 °C 1010.1 hPa SSO 7.3 km/h 14.8 km/h 94% 1.3 mm
03:54 5 °C 4.1 °C 1010.1 hPa SO 6.5 km/h 14.5 km/h 94% 1.3 mm
03:59 5 °C 4.1 °C 1010.1 hPa SO 6.8 km/h 15.6 km/h 94% 1.4 mm
04:04 4.9 °C 4 °C 1010.1 hPa SO 6.9 km/h 16.1 km/h 94% 1.4 mm
04:09 4.9 °C 4 °C 1010.1 hPa SSO 6.9 km/h 11.9 km/h 94% 1.4 mm
04:14 4.9 °C 4 °C 1010.0 hPa SO 6.9 km/h 11.3 km/h 94% 1.4 mm
04:19 4.9 °C 4 °C 1010.0 hPa SSO 6.2 km/h 11.3 km/h 94% 1.1 mm
04:24 4.9 °C 4 °C 1010.0 hPa OSO 5.8 km/h 9.7 km/h 94% 1.1 mm
04:29 4.8 °C 3.9 °C 1010.0 hPa SSO 5.3 km/h 11.1 km/h 94% 1.1 mm
04:34 4.8 °C 3.9 °C 1010.0 hPa SO 5 km/h 11.3 km/h 94.1% 0.6 mm
04:39 4.8 °C 4.1 °C 1010.1 hPa SO 5.9 km/h 11.3 km/h 95% 0.6 mm
04:44 4.8 °C 3.9 °C 1010.1 hPa SO 6.5 km/h 13.7 km/h 94.1% 0.9 mm
04:49 4.7 °C 3.8 °C 1010.1 hPa Sur 6.5 km/h 14.5 km/h 94% 0.6 mm
04:54 4.7 °C 3.9 °C 1010.1 hPa SO 6.5 km/h 11.9 km/h 94.9% 0.6 mm
04:59 4.7 °C 3.9 °C 1010.0 hPa OSO 6.5 km/h 11.3 km/h 95% 0.6 mm
05:04 4.7 °C 3.8 °C 1010.0 hPa SO 6.5 km/h 14.8 km/h 94% 0.3 mm
05:09 4.5 °C 3.6 °C 1010.0 hPa Oeste 6.5 km/h 14.5 km/h 94% 0.3 mm
05:14 4.4 °C 3.5 °C 1009.8 hPa SO 6.5 km/h 17.2 km/h 94% 0.3 mm
05:19 4.4 °C 3.5 °C 1009.8 hPa SO 7.7 km/h 11.9 km/h 94.1% 0.3 mm
05:24 4.4 °C 3.5 °C 1009.8 hPa SO 8.4 km/h 16.1 km/h 94.2% 0.3 mm
05:29 4.4 °C 3.5 °C 1009.6 hPa OSO 8.6 km/h 16.7 km/h 94% 0.3 mm
05:34 4.4 °C 3.5 °C 1009.6 hPa SO 8.7 km/h 17.2 km/h 94% 0.3 mm
05:39 4.4 °C 3.5 °C 1009.6 hPa SSO 8.5 km/h 17.7 km/h 94.1% 0.3 mm
05:44 4.5 °C 3.6 °C 1009.6 hPa SO 8.4 km/h 13.7 km/h 94% 0.3 mm
05:49 4.5 °C 3.7 °C 1009.6 hPa SSO 6.8 km/h 14.5 km/h 94.7% 0.0 mm
05:54 4.5 °C 3.6 °C 1009.6 hPa SSO 5.8 km/h 10 km/h 94% 0.0 mm
05:59 4.4 °C 3.6 °C 1009.4 hPa Sur 6.5 km/h 13 km/h 94.5% 0.0 mm
06:04 4.5 °C 3.7 °C 1009.4 hPa SSO 6.9 km/h 13 km/h 95% 0.3 mm
06:09 4.4 °C 3.7 °C 1009.4 hPa Sur 8.1 km/h 13 km/h 95% 0.3 mm
06:14 4.4 °C 3.7 °C 1009.4 hPa Sur 8.7 km/h 14.8 km/h 95% 0.3 mm
06:19 4.4 °C 3.7 °C 1009.4 hPa Sur 9.2 km/h 14.5 km/h 95% 0.3 mm
06:24 4.4 °C 3.7 °C 1009.5 hPa SSO 9.5 km/h 12.9 km/h 95% 0.3 mm
06:29 4.4 °C 3.7 °C 1009.5 hPa SSO 8.2 km/h 11.9 km/h 95% 0.3 mm
06:34 4.4 °C 3.7 °C 1009.5 hPa Sur 7.6 km/h 11.9 km/h 95% 0.3 mm
06:39 4.3 °C 3.6 °C 1009.6 hPa SSO 8.1 km/h 14.8 km/h 95% 0.3 mm
06:44 4.4 °C 3.6 °C 1009.6 hPa SSO 8.4 km/h 14.5 km/h 95% 0.3 mm
06:49 4.4 °C 3.7 °C 1009.6 hPa SSO 8.4 km/h 14.8 km/h 95% 0.3 mm
06:54 4.4 °C 3.6 °C 1009.7 hPa SSO 8.4 km/h 14.8 km/h 95% 0.3 mm
06:59 4.4 °C 3.6 °C 1009.7 hPa Sur 7.9 km/h 14.5 km/h 95% 0.3 mm
07:04 4.3 °C 3.6 °C 1009.7 hPa SSO 7.6 km/h 11.1 km/h 95% 0.5 mm
07:09 4.3 °C 3.6 °C 1009.7 hPa SSO 6.9 km/h 13 km/h 95% 0.5 mm
07:14 4.3 °C 3.6 °C 1009.5 hPa Sur 6.5 km/h 13 km/h 95% 0.5 mm
07:19 4.3 °C 3.6 °C 1009.5 hPa Sur 7.9 km/h 14.8 km/h 95% 0.5 mm
07:24 4.3 °C 3.6 °C 1009.8 hPa Sur 8.7 km/h 14.5 km/h 95% 0.7 mm
07:29 4.3 °C 3.6 °C 1009.8 hPa Sur 7.6 km/h 14 km/h 95% 0.7 mm
07:34 4.3 °C 3.6 °C 1009.8 hPa Sur 6.9 km/h 14.8 km/h 95% 0.7 mm
07:39 4.3 °C 3.6 °C 1009.8 hPa SSO 7.8 km/h 12.9 km/h 95% 0.7 mm
07:44 4.3 °C 3.6 °C 1009.6 hPa SSO 8.4 km/h 13 km/h 95.2% 0.7 mm
07:49 4.3 °C 3.6 °C 1009.6 hPa Sur 7.5 km/h 13 km/h 95.2% 0.7 mm
07:54 4.3 °C 3.7 °C 1009.8 hPa Sur 6.9 km/h 13.7 km/h 96% 0.7 mm
07:59 4.3 °C 3.7 °C 1009.8 hPa SSO 7.9 km/h 14.5 km/h 96% 1.0 mm
08:04 4.3 °C 3.7 °C 1009.8 hPa Sur 8.4 km/h 14.8 km/h 96% 1.0 mm
08:09 4.2 °C 3.7 °C 1009.8 hPa SSO 8.6 km/h 16.7 km/h 96% 0.5 mm
08:14 4.3 °C 3.7 °C 1009.7 hPa SSE 8.7 km/h 16.1 km/h 96% 0.5 mm
08:19 4.3 °C 3.7 °C 1009.7 hPa Sur 8.5 km/h 16.7 km/h 96% 0.5 mm
08:24 4.3 °C 3.7 °C 1009.8 hPa Sur 8.4 km/h 13.7 km/h 96% 0.5 mm
08:29 4.3 °C 3.7 °C 1009.8 hPa SSO 8.4 km/h 14.5 km/h 96% 0.5 mm
08:34 4.3 °C 3.7 °C 1009.8 hPa SSO 8.4 km/h 14.5 km/h 96% 0.5 mm
08:39 4.3 °C 3.7 °C 1009.8 hPa Sur 8.6 km/h 14.5 km/h 96% 0.8 mm
08:44 4.2 °C 3.6 °C 1009.6 hPa Sur 8.7 km/h 11.9 km/h 96% 0.8 mm
08:49 4.3 °C 3.7 °C 1009.6 hPa SSO 8.5 km/h 13 km/h 96% 0.8 mm
08:54 4.3 °C 3.7 °C 1009.6 hPa SSO 8.4 km/h 12.9 km/h 96% 1.0 mm
08:59 4.3 °C 3.7 °C 1009.4 hPa SO 6 km/h 11.9 km/h 96% 1.0 mm
09:04 4.3 °C 3.7 °C 1009.4 hPa SSO 4.7 km/h 11.9 km/h 96% 0.7 mm
09:09 4.3 °C 3.7 °C 1009.4 hPa SSO 6.5 km/h 13 km/h 96% 1.2 mm
09:14 4.3 °C 3.7 °C 1009.1 hPa SO 7.6 km/h 13 km/h 96% 1.2 mm
09:19 4.4 °C 3.9 °C 1009.1 hPa SSO 7.6 km/h 12.9 km/h 96.4% 1.2 mm
09:24 4.4 °C 3.9 °C 1009.5 hPa SSO 7.6 km/h 13.7 km/h 96.4% 1.3 mm
09:29 4.4 °C 3.8 °C 1009.5 hPa Sur 7.6 km/h 14.8 km/h 96% 1.3 mm
09:34 4.4 °C 3.8 °C 1009.5 hPa SSO 7.6 km/h 15.6 km/h 96% 1.3 mm
09:39 4.3 °C 3.7 °C 1009.5 hPa Sur 9.1 km/h 16.1 km/h 96% 1.3 mm
09:44 4.3 °C 3.8 °C 1009.5 hPa SSO 10 km/h 14.5 km/h 96.4% 1.0 mm
09:49 4.4 °C 3.9 °C 1009.5 hPa SSO 8.9 km/h 14.5 km/h 96.9% 1.2 mm
09:54 4.4 °C 3.9 °C 1009.7 hPa SSO 8.4 km/h 18.5 km/h 96.7% 1.2 mm
09:59 4.4 °C 4 °C 1009.7 hPa SSO 9.4 km/h 19.3 km/h 97% 1.3 mm
10:04 4.5 °C 4.1 °C 1009.7 hPa SSO 10 km/h 14.5 km/h 97% 1.3 mm
10:09 4.5 °C 4 °C 1009.8 hPa Sur 8.5 km/h 11.9 km/h 97% 1.3 mm
10:14 4.5 °C 4 °C 1009.8 hPa SSO 7.6 km/h 15.6 km/h 97% 1.0 mm
10:19 4.5 °C 4.1 °C 1009.8 hPa SSO 9.1 km/h 17.2 km/h 97% 1.3 mm
10:24 4.6 °C 4.2 °C 1010.0 hPa SSO 10 km/h 15.6 km/h 97% 1.3 mm
10:29 4.6 °C 4.2 °C 1010.0 hPa SSO 9.1 km/h 14.5 km/h 97% 1.2 mm
10:34 4.7 °C 4.2 °C 1010.0 hPa Sur 8.7 km/h 15.6 km/h 97% 1.5 mm
10:39 4.7 °C 4.3 °C 1010.3 hPa Sur 9.2 km/h 16.1 km/h 97% 1.5 mm
10:44 4.7 °C 4.3 °C 1010.3 hPa SSO 9.5 km/h 13 km/h 97% 2.0 mm
10:49 4.7 °C 4.3 °C 1010.3 hPa SO 8.2 km/h 14.8 km/h 97% 2.1 mm
10:54 4.7 °C 4.3 °C 1010.3 hPa SSO 7.6 km/h 14.5 km/h 97% 2.6 mm
10:59 4.7 °C 4.3 °C 1010.3 hPa Sur 7.6 km/h 12.9 km/h 97% 2.6 mm
11:04 4.8 °C 4.4 °C 1010.3 hPa SSO 7.6 km/h 11.1 km/h 97% 2.5 mm
11:09 4.8 °C 4.4 °C 1010.3 hPa SO 6.9 km/h 13 km/h 97% 2.8 mm
11:14 4.8 °C 4.4 °C 1010.1 hPa SO 6.5 km/h 14 km/h 97% 2.8 mm
11:19 4.8 °C 4.4 °C 1010.1 hPa SSO 7.2 km/h 14.8 km/h 97% 2.8 mm
11:24 4.8 °C 4.4 °C 1010.1 hPa SO 7.6 km/h 13 km/h 97% 2.5 mm
11:29 4.9 °C 4.4 °C 1009.9 hPa SSO 7.6 km/h 13 km/h 97% 2.8 mm
11:34 4.9 °C 4.5 °C 1009.9 hPa Sur 7.6 km/h 11.1 km/h 97% 2.6 mm
11:39 5 °C 4.6 °C 1009.9 hPa SSO 7.6 km/h 13 km/h 97% 2.3 mm
11:44 5.1 °C 4.6 °C 1009.8 hPa SSO 7.6 km/h 14.8 km/h 97% 2.3 mm
11:49 5.1 °C 4.7 °C 1009.8 hPa SO 7.6 km/h 14.5 km/h 97% 1.8 mm
11:54 5.2 °C 4.7 °C 1009.8 hPa SO 7.6 km/h 11.1 km/h 97% 1.5 mm
11:59 5.2 °C 4.8 °C 1009.5 hPa SSO 6.4 km/h 11.9 km/h 97% 1.5 mm
12:04 5.2 °C 4.8 °C 1009.5 hPa SO 5.8 km/h 13 km/h 97% 1.5 mm
12:09 5.2 °C 4.8 °C 1009.5 hPa SSO 6.5 km/h 12.9 km/h 97% 1.5 mm
12:14 5.3 °C 4.8 °C 1009.2 hPa Sur 6.9 km/h 11.3 km/h 97% 1.5 mm
12:19 5.3 °C 4.9 °C 1009.2 hPa Sur 7.3 km/h 11.9 km/h 97% 1.3 mm
12:24 5.3 °C 4.9 °C 1009.2 hPa SSO 7.6 km/h 14.8 km/h 97% 1.3 mm
12:29 5.3 °C 4.9 °C 1008.9 hPa SSO 8.1 km/h 14.8 km/h 97% 1.2 mm
12:34 5.3 °C 4.9 °C 1008.9 hPa SSO 8.4 km/h 14.8 km/h 97% 1.5 mm
12:39 5.3 °C 4.9 °C 1008.9 hPa SSO 7.9 km/h 14.5 km/h 97% 1.7 mm
12:44 5.4 °C 4.9 °C 1008.8 hPa SO 7.6 km/h 12.2 km/h 97% 1.7 mm
12:49 5.4 °C 4.9 °C 1008.8 hPa SSO 7.6 km/h 13 km/h 97% 2.0 mm
12:54 5.4 °C 4.9 °C 1008.8 hPa SSO 7.6 km/h 15.6 km/h 97% 1.8 mm
12:59 5.4 °C 4.9 °C 1008.2 hPa SO 8.3 km/h 16.7 km/h 97% 1.7 mm
13:04 5.4 °C 4.9 °C 1008.2 hPa SSO 8.7 km/h 16.7 km/h 97% 1.7 mm
13:09 5.4 °C 4.9 °C 1008.4 hPa SE 8.7 km/h 16.1 km/h 97% 1.7 mm
13:14 5.4 °C 4.9 °C 1008.4 hPa Sur 8.7 km/h 17.2 km/h 97% 1.2 mm
13:19 5.4 °C 4.9 °C 1008.4 hPa SO 8.7 km/h 17.7 km/h 97% 1.8 mm
13:24 5.4 °C 4.9 °C 1008.4 hPa SO 8.7 km/h 15.6 km/h 97% 2.0 mm
13:29 5.4 °C 4.9 °C 1008.2 hPa SO 8.5 km/h 16.1 km/h 97% 2.0 mm
13:34 5.4 °C 4.9 °C 1008.2 hPa SO 8.4 km/h 18.5 km/h 97% 1.8 mm
13:39 5.4 °C 4.9 °C 1008.2 hPa OSO 8.6 km/h 19.3 km/h 97% 1.8 mm
13:44 5.4 °C 4.9 °C 1007.7 hPa OSO 8.7 km/h 14.5 km/h 97% 1.6 mm
13:49 5.4 °C 4.9 °C 1007.7 hPa SO 8.5 km/h 12.9 km/h 97% 1.6 mm
13:54 5.4 °C 4.9 °C 1007.7 hPa OSO 8.4 km/h 15.6 km/h 97% 1.8 mm
13:59 5.4 °C 4.9 °C 1007.3 hPa SO 8.4 km/h 16.1 km/h 97% 1.8 mm
14:04 5.4 °C 5 °C 1007.3 hPa SSO 8.4 km/h 12.9 km/h 97% 1.6 mm
14:09 5.5 °C 5.1 °C 1007.3 hPa SSO 6.2 km/h 11.9 km/h 97% 1.6 mm
14:14 5.5 °C 5.1 °C 1007.0 hPa SO 5 km/h 11.3 km/h 97% 1.6 mm
14:19 5.6 °C 5.2 °C 1007.0 hPa OSO 5.5 km/h 11.1 km/h 97% 1.6 mm
14:24 5.6 °C 5.2 °C 1007.0 hPa SO 5.8 km/h 13.7 km/h 97% 1.3 mm
14:29 5.7 °C 5.3 °C 1006.8 hPa OSO 6.5 km/h 14.8 km/h 97% 1.1 mm
14:34 5.6 °C 5.2 °C 1006.8 hPa OSO 6.9 km/h 14.5 km/h 97% 1.4 mm
14:39 5.6 °C 5.2 °C 1006.8 hPa SO 7.4 km/h 17.2 km/h 97% 1.1 mm
14:44 5.6 °C 5.1 °C 1006.8 hPa OSO 7.6 km/h 19 km/h 97% 1.1 mm
14:49 5.6 °C 5.2 °C 1006.8 hPa SO 9.1 km/h 19.3 km/h 97% 1.3 mm
14:54 5.6 °C 5.2 °C 1006.8 hPa OSO 10 km/h 13.7 km/h 97% 0.8 mm
14:59 5.6 °C 5.2 °C 1006.7 hPa SO 8.9 km/h 14.5 km/h 97% 1.1 mm
15:04 5.6 °C 5.2 °C 1006.7 hPa OSO 8.4 km/h 13 km/h 97% 1.1 mm
15:09 5.6 °C 5.2 °C 1006.7 hPa OSO 8.6 km/h 13.7 km/h 97% 1.3 mm
15:14 5.6 °C 5.2 °C 1006.2 hPa OSO 8.7 km/h 14.5 km/h 97% 1.6 mm
15:19 5.6 °C 5.2 °C 1006.2 hPa SO 7.6 km/h 13 km/h 97% 1.6 mm
15:24 5.7 °C 5.3 °C 1006.2 hPa SO 6.9 km/h 13.7 km/h 97% 1.6 mm
15:29 5.7 °C 5.3 °C 1006.2 hPa SO 8 km/h 14.5 km/h 97% 1.8 mm
15:34 5.7 °C 5.3 °C 1006.2 hPa SSO 8.7 km/h 14.5 km/h 97% 1.8 mm
15:39 5.8 °C 5.3 °C 1006.2 hPa SSO 8 km/h 13 km/h 97% 1.8 mm
15:44 5.8 °C 5.3 °C 1006.2 hPa SSO 7.6 km/h 13 km/h 97% 2.0 mm
15:49 5.9 °C 5.4 °C 1006.2 hPa SSO 7.2 km/h 11.1 km/h 97% 2.0 mm
15:54 5.9 °C 5.4 °C 1006.4 hPa Sur 6.9 km/h 11.3 km/h 97% 2.1 mm
15:59 5.9 °C 5.4 °C 1006.4 hPa Sur 6.2 km/h 14.8 km/h 97% 2.4 mm
16:04 5.9 °C 5.5 °C 1006.4 hPa Sur 5.8 km/h 14.8 km/h 97% 2.3 mm
16:09 6.1 °C 5.7 °C 1006.4 hPa SE 7.7 km/h 14.5 km/h 97% 2.6 mm
16:14 6.2 °C 5.7 °C 1006.3 hPa Este 8.7 km/h 9.7 km/h 97% 2.4 mm
16:19 6.2 °C 5.8 °C 1006.3 hPa SE 6.2 km/h 9.5 km/h 97% 2.3 mm
16:24 6.4 °C 6.1 °C 1006.7 hPa NE 5 km/h 14.8 km/h 97.8% 2.3 mm
16:29 6.7 °C 6.3 °C 1006.7 hPa SE 5.9 km/h 14.5 km/h 97.6% 2.3 mm
16:34 6.5 °C 6.1 °C 1006.7 hPa Sur 6.5 km/h 11.3 km/h 97% 2.6 mm
16:39 6.5 °C 6.1 °C 1006.9 hPa SSE 5.3 km/h 5.8 km/h 97% 2.6 mm
16:44 6.6 °C 6.2 °C 1006.9 hPa NE 4.7 km/h 6.4 km/h 97% 2.3 mm
16:49 6.6 °C 6.2 °C 1006.9 hPa Este 3.8 km/h 9.5 km/h 97% 2.3 mm
16:54 6.7 °C 6.3 °C 1006.9 hPa ESE 3.2 km/h 10.3 km/h 97% 2.0 mm
16:59 6.7 °C 6.3 °C 1006.7 hPa SE 4.4 km/h 9.7 km/h 97% 2.3 mm
17:04 6.6 °C 6.2 °C 1006.7 hPa ESE 5 km/h 8 km/h 97% 2.0 mm
17:09 6.6 °C 6.2 °C 1006.7 hPa NE 4.2 km/h 11.9 km/h 97% 2.0 mm
17:14 6.7 °C 6.3 °C 1006.2 hPa NE 3.9 km/h 11.3 km/h 97% 1.7 mm
17:19 6.8 °C 6.4 °C 1006.2 hPa NNE 5.1 km/h 14.8 km/h 97.3% 1.5 mm
17:24 7.1 °C 6.8 °C 1006.2 hPa NNE 5.8 km/h 17.2 km/h 98% 1.5 mm
17:29 7.2 °C 6.9 °C 1005.8 hPa NNE 8.1 km/h 17.7 km/h 98% 1.2 mm
17:34 7.3 °C 6.9 °C 1005.8 hPa NNE 9.5 km/h 24.1 km/h 97.5% 1.0 mm
17:39 7.3 °C 6.8 °C 1005.9 hPa NNE 10.6 km/h 24.1 km/h 97% 0.7 mm
17:44 7.3 °C 6.8 °C 1005.9 hPa NNE 11.1 km/h 22.5 km/h 97% 0.7 mm
17:49 7.3 °C 6.8 °C 1005.9 hPa NNE 12.7 km/h 22.5 km/h 97% 0.7 mm
17:54 7.3 °C 6.8 °C 1005.9 hPa NNE 13.7 km/h 24.5 km/h 97% 0.5 mm
17:59 7.3 °C 6.8 °C 1005.3 hPa NNE 13.7 km/h 28.2 km/h 97% 0.2 mm
18:04 7.3 °C 6.9 °C 1005.3 hPa NNE 13.7 km/h 27.4 km/h 97% 0.2 mm
18:09 7.4 °C 6.9 °C 1005.4 hPa NNE 14.4 km/h 25.7 km/h 97% 0.0 mm
18:14 7.4 °C 6.9 °C 1005.4 hPa NNE 14.8 km/h 19.8 km/h 97% 0.0 mm
18:19 7.4 °C 6.9 °C 1005.4 hPa NNE 13.2 km/h 22.2 km/h 97% 0.0 mm
18:24 7.4 °C 6.9 °C 1005.5 hPa NNE 12.2 km/h 24.5 km/h 97% 0.5 mm
18:29 7.4 °C 6.9 °C 1005.5 hPa NNE 12.8 km/h 24.1 km/h 97% 0.5 mm
18:34 7.4 °C 6.9 °C 1005.5 hPa NNE 13 km/h 20.1 km/h 97% 0.5 mm
18:39 7.4 °C 6.9 °C 1005.5 hPa NNE 12.3 km/h 20.9 km/h 96.7% 0.5 mm
18:44 7.4 °C 6.8 °C 1005.4 hPa NNE 11.9 km/h 24.1 km/h 96% 0.5 mm
18:49 7.4 °C 6.8 °C 1005.4 hPa NNE 13.1 km/h 24.1 km/h 96% 0.5 mm
18:54 7.4 °C 6.8 °C 1005.4 hPa NNE 13.7 km/h 22 km/h 96% 0.5 mm
18:59 7.4 °C 6.8 °C 1004.6 hPa NNE 13.7 km/h 24.1 km/h 96% 0.5 mm
19:04 7.4 °C 6.8 °C 1004.6 hPa NNE 13.7 km/h 24.1 km/h 96% 0.7 mm
19:09 7.5 °C 6.9 °C 1005.3 hPa North 12.7 km/h 24.1 km/h 96% 0.7 mm
19:14 7.5 °C 6.8 °C 1005.3 hPa NNE 12.2 km/h 17.7 km/h 95.2% 0.7 mm
19:19 7.5 °C 6.8 °C 1005.3 hPa NNE 11 km/h 19.8 km/h 95% 0.7 mm
19:24 7.5 °C 6.8 °C 1005.4 hPa NNE 10.3 km/h 20.9 km/h 95% 0.7 mm
19:29 7.5 °C 6.8 °C 1005.4 hPa NNE 12 km/h 22.2 km/h 95% 0.5 mm
19:34 7.5 °C 6.8 °C 1005.4 hPa North 13 km/h 22.5 km/h 95% 0.5 mm
19:39 7.4 °C 6.7 °C 1005.6 hPa North 12.5 km/h 22.5 km/h 94.9% 0.5 mm
19:44 7.4 °C 6.5 °C 1005.6 hPa North 12.2 km/h 22.5 km/h 94% 0.8 mm
19:49 7.4 °C 6.5 °C 1005.6 hPa NO 9.9 km/h 16.7 km/h 94% 0.8 mm
19:54 7.4 °C 6.6 °C 1005.6 hPa OSO 8.7 km/h 16.1 km/h 94.7% 0.8 mm
19:59 7.4 °C 6.7 °C 1005.5 hPa North 5.6 km/h 8.4 km/h 95% 1.0 mm
20:04 7.3 °C 6.6 °C 1005.5 hPa NO 3.9 km/h 9.3 km/h 95% 0.8 mm
20:09 7.3 °C 6.6 °C 1005.8 hPa Oeste 4.3 km/h 11.1 km/h 95% 0.8 mm
20:14 7.3 °C 6.6 °C 1005.8 hPa Oeste 4.7 km/h 11.9 km/h 95% 1.3 mm
20:19 7.2 °C 6.4 °C 1005.8 hPa OSO 6.5 km/h 15.6 km/h 95% 1.3 mm
20:24 6.9 °C 6.1 °C 1005.9 hPa Oeste 7.6 km/h 13 km/h 94.7% 1.3 mm
20:29 6.7 °C 5.9 °C 1005.9 hPa OSO 8.3 km/h 13 km/h 94.9% 1.0 mm
20:34 6.6 °C 5.8 °C 1005.9 hPa Oeste 8.7 km/h 12.9 km/h 95% 1.0 mm
20:39 6.5 °C 5.7 °C 1006.3 hPa OSO 5.5 km/h 9.3 km/h 95% 1.0 mm
20:44 6.4 °C 5.7 °C 1006.3 hPa SO 3.9 km/h 9.7 km/h 95% 1.0 mm
20:49 6.3 °C 5.6 °C 1006.3 hPa SO 3.9 km/h 8 km/h 95% 1.0 mm
20:54 6.3 °C 5.6 °C 1006.3 hPa SO 3.9 km/h 9.5 km/h 95% 1.0 mm
20:59 6.3 °C 5.7 °C 1005.9 hPa SO 4.4 km/h 10 km/h 95.9% 1.2 mm
21:04 6.4 °C 5.8 °C 1005.9 hPa NE 4.7 km/h 11.1 km/h 96% 1.0 mm
21:09 6.4 °C 5.8 °C 1005.9 hPa SO 5.8 km/h 11.3 km/h 96% 1.3 mm
21:14 6.6 °C 6 °C 1004.8 hPa Oeste 6.5 km/h 11.9 km/h 96% 1.3 mm
21:19 6.5 °C 5.9 °C 1004.8 hPa Oeste 7.1 km/h 14.8 km/h 96% 0.8 mm
21:24 6.3 °C 5.8 °C 1005.2 hPa Oeste 7.6 km/h 19 km/h 96% 0.8 mm
21:29 6.2 °C 5.6 °C 1005.2 hPa Oeste 9.3 km/h 19.3 km/h 96% 0.8 mm
21:34 6.2 °C 5.6 °C 1005.2 hPa Oeste 10.3 km/h 16.7 km/h 96% 0.8 mm
21:39 6.3 °C 5.7 °C 1005.2 hPa Oeste 10.8 km/h 16.7 km/h 96% 0.8 mm
21:44 6.3 °C 5.7 °C 1005.1 hPa OSO 11.1 km/h 16.7 km/h 96% 0.8 mm
21:49 6.3 °C 5.7 °C 1005.1 hPa Oeste 10.6 km/h 16.1 km/h 96% 0.7 mm
21:54 6.3 °C 5.7 °C 1005.1 hPa Oeste 10.3 km/h 16.7 km/h 96% 0.7 mm
21:59 6.2 °C 5.6 °C 1005.1 hPa Oeste 10.1 km/h 16.1 km/h 96% 0.5 mm
22:04 6.2 °C 5.6 °C 1005.1 hPa Oeste 10 km/h 16.1 km/h 96% 0.5 mm
22:09 6.2 °C 5.6 °C 1005.2 hPa ONO 9 km/h 16.1 km/h 96% 0.5 mm
22:14 6.2 °C 5.6 °C 1005.2 hPa ONO 8.4 km/h 13.7 km/h 96% 0.2 mm
22:19 6.1 °C 5.6 °C 1005.2 hPa OSO 7.8 km/h 14.5 km/h 96.2% 0.2 mm
22:24 6.2 °C 5.8 °C 1005.2 hPa Oeste 7.6 km/h 13 km/h 97% 0.2 mm
22:29 6.2 °C 5.8 °C 1005.2 hPa NO 6.8 km/h 12.9 km/h 96.9% 0.5 mm
22:34 6.2 °C 5.7 °C 1005.2 hPa Oeste 6.5 km/h 11.3 km/h 96.3% 0.5 mm
22:39 6.2 °C 5.8 °C 1005.2 hPa SO 5.6 km/h 9.7 km/h 97% 0.8 mm
22:44 6.2 °C 5.8 °C 1004.8 hPa SO 5 km/h 8 km/h 97% 0.8 mm
22:49 6.2 °C 5.8 °C 1004.8 hPa SO 4.3 km/h 8 km/h 97% 0.8 mm
22:54 6.2 °C 5.7 °C 1004.8 hPa SO 3.9 km/h 7.4 km/h 96.4% 1.1 mm
22:59 6.2 °C 5.6 °C 1004.1 hPa SO 3.2 km/h 8 km/h 96.3% 1.1 mm
23:04 6.2 °C 5.7 °C 1004.1 hPa SSO 2.9 km/h 6.4 km/h 97% 1.3 mm
23:09 6.1 °C 5.7 °C 1004.1 hPa SSO 3.1 km/h 8.4 km/h 97% 1.3 mm
23:14 6.2 °C 5.8 °C 1003.7 hPa SSO 3.2 km/h 8.7 km/h 97% 1.3 mm
23:19 6.2 °C 5.8 °C 1003.7 hPa SO 4.9 km/h 9.7 km/h 97% 1.6 mm
23:24 6.2 °C 5.8 °C 1003.9 hPa SO 5.8 km/h 9.7 km/h 97% 1.6 mm
23:29 6.2 °C 5.8 °C 1003.9 hPa SO 5.8 km/h 11.1 km/h 97% 1.6 mm
23:34 6.2 °C 5.8 °C 1003.9 hPa SSO 5.8 km/h 11.3 km/h 97% 1.3 mm
23:39 6.2 °C 5.8 °C 1003.9 hPa SSE 5.3 km/h 10.3 km/h 97% 1.3 mm
23:44 6.2 °C 5.8 °C 1003.7 hPa SSE 5 km/h 11.3 km/h 97% 1.5 mm
23:49 6.2 °C 5.8 °C 1003.7 hPa SSO 5.9 km/h 11.3 km/h 97% 1.6 mm
23:54 6.2 °C 5.8 °C 1003.7 hPa Sur 6.5 km/h 11.1 km/h 97% 1.6 mm
23:59 6.1 °C 5.7 °C 1003.4 hPa SSE 6.5 km/h 11.3 km/h 97% 1.3 mm
Murcia-Puente Tocinos, Espa?a
Compliments of Weather Underground - 3 mb

La estación de MeteoMurcia.com, publica sus datos en los siguientes proyectos:

Weather Underground PWS IMURCIAP2 Meteoclimatic www.awekas.at

W3Counter
Web Analytics